createdAt,value
2019-02-25T00:00:53.777Z,3.60
2019-02-25T00:04:03.064Z,3.60
2019-02-25T00:07:10.622Z,3.60
2019-02-25T00:10:18.307Z,3.60
2019-02-25T00:13:25.925Z,3.60
2019-02-25T00:16:33.565Z,3.60
2019-02-25T00:19:41.261Z,3.60
2019-02-25T00:22:48.930Z,3.60
2019-02-25T00:25:56.592Z,3.60
2019-02-25T00:29:04.368Z,3.50
2019-02-25T00:32:11.891Z,3.60
2019-02-25T00:35:20.670Z,3.50
2019-02-25T00:38:28.361Z,3.50
2019-02-25T00:41:36.069Z,3.50
2019-02-25T00:44:43.725Z,3.50
2019-02-25T00:47:51.301Z,3.50
2019-02-25T00:50:59.940Z,3.50
2019-02-25T00:54:07.586Z,3.50
2019-02-25T00:57:16.067Z,3.30
2019-02-25T01:00:26.045Z,3.10
2019-02-25T01:03:33.699Z,2.90
2019-02-25T01:06:41.543Z,2.70
2019-02-25T01:09:49.141Z,2.50
2019-02-25T01:12:56.718Z,2.40
2019-02-25T01:16:04.523Z,2.30
2019-02-25T01:19:12.062Z,2.20
2019-02-25T01:22:19.613Z,2.10
2019-02-25T01:25:27.406Z,2.00
2019-02-25T01:28:36.318Z,2.00
2019-02-25T01:31:44.285Z,1.90
2019-02-25T01:34:51.861Z,1.80
2019-02-25T01:37:59.545Z,1.70
2019-02-25T01:41:07.264Z,1.70
2019-02-25T01:44:14.807Z,1.70
2019-02-25T01:47:22.893Z,1.80
2019-02-25T01:50:30.489Z,1.80
2019-02-25T01:53:38.267Z,1.80
2019-02-25T01:56:45.907Z,1.90
2019-02-25T01:59:53.587Z,1.80
2019-02-25T02:03:01.206Z,1.80
2019-02-25T02:06:09.869Z,1.80
2019-02-25T02:09:17.485Z,1.80
2019-02-25T02:12:25.170Z,1.70
2019-02-25T02:15:32.771Z,1.70
2019-02-25T02:18:40.441Z,1.70
2019-02-25T02:21:48.206Z,1.70
2019-02-25T02:24:55.871Z,1.70
2019-02-25T02:28:03.445Z,1.80
2019-02-25T02:31:11.008Z,1.80
2019-02-25T02:34:18.580Z,1.80
2019-02-25T02:37:26.224Z,1.80
2019-02-25T02:40:33.846Z,1.80
2019-02-25T02:43:41.489Z,1.90
2019-02-25T02:47:16.159Z,2.00
2019-02-25T02:50:25.492Z,2.10
2019-02-25T02:53:33.500Z,2.20
2019-02-25T02:56:41.071Z,2.30
2019-02-25T02:59:48.807Z,2.40
2019-02-25T03:02:56.424Z,2.40
2019-02-25T03:06:04.161Z,2.50
2019-02-25T03:09:12.225Z,2.60
2019-02-25T03:12:20.135Z,2.60
2019-02-25T03:15:27.963Z,2.70
2019-02-25T03:18:35.651Z,2.70
2019-02-25T03:21:43.585Z,2.70
2019-02-25T03:24:51.212Z,2.80
2019-02-25T03:27:58.853Z,2.80
2019-02-25T03:31:06.678Z,2.80
2019-02-25T03:34:14.338Z,2.80
2019-02-25T03:37:21.841Z,2.80
2019-02-25T03:40:29.551Z,2.80
2019-02-25T03:43:37.147Z,2.80
2019-02-25T03:46:44.825Z,2.80
2019-02-25T03:49:52.451Z,2.80
2019-02-25T03:53:00.021Z,2.80
2019-02-25T03:56:07.627Z,2.80
2019-02-25T03:59:15.169Z,2.70
2019-02-25T04:02:23.034Z,2.60
2019-02-25T04:05:30.889Z,2.50
2019-02-25T04:08:38.609Z,2.40
2019-02-25T04:11:46.501Z,2.30
2019-02-25T04:14:54.205Z,2.20
2019-02-25T04:18:02.305Z,2.10
2019-02-25T04:21:09.907Z,2.10
2019-02-25T04:24:17.450Z,2.00
2019-02-25T04:27:25.081Z,2.00
2019-02-25T04:30:32.743Z,1.90
2019-02-25T04:33:40.701Z,1.90
2019-02-25T04:36:48.337Z,1.80
2019-02-25T04:39:56.020Z,1.80
2019-02-25T04:43:03.545Z,1.70
2019-02-25T04:46:11.530Z,1.70
2019-02-25T04:49:20.203Z,1.70
2019-02-25T04:52:28.149Z,1.70
2019-02-25T04:55:35.847Z,1.70
2019-02-25T04:58:43.650Z,1.70
2019-02-25T05:01:51.774Z,1.80
2019-02-25T05:04:59.461Z,1.80
2019-02-25T05:08:07.049Z,1.70
2019-02-25T05:11:17.009Z,1.60
2019-02-25T05:14:24.650Z,1.60
2019-02-25T05:17:32.183Z,1.60
2019-02-25T05:20:39.964Z,1.50
2019-02-25T05:23:47.489Z,1.40
2019-02-25T05:26:56.231Z,1.40
2019-02-25T05:30:03.875Z,1.40
2019-02-25T05:33:12.540Z,1.30
2019-02-25T05:36:20.103Z,1.30
2019-02-25T05:39:27.780Z,1.30
2019-02-25T05:42:37.336Z,1.30
2019-02-25T05:45:44.963Z,1.30
2019-02-25T05:48:52.611Z,1.30
2019-02-25T05:52:00.265Z,1.30
2019-02-25T05:55:09.429Z,1.30
2019-02-25T05:58:17.128Z,1.30
2019-02-25T06:01:24.837Z,1.40
2019-02-25T06:04:32.403Z,1.50
2019-02-25T06:07:40.546Z,1.60
2019-02-25T06:10:48.268Z,1.70
2019-02-25T06:13:55.873Z,1.80
2019-02-25T06:17:03.420Z,1.90
2019-02-25T06:20:11.882Z,2.10
2019-02-25T06:23:19.477Z,2.20
2019-02-25T06:26:27.103Z,2.30
2019-02-25T06:29:34.653Z,2.40
2019-02-25T06:32:42.271Z,2.60
2019-02-25T06:35:50.940Z,2.70
2019-02-25T06:38:58.517Z,2.90
2019-02-25T06:42:06.150Z,3.00
2019-02-25T06:45:15.742Z,3.30
2019-02-25T06:48:23.302Z,3.40
2019-02-25T06:51:30.889Z,3.70
2019-02-25T06:54:38.481Z,3.90
2019-02-25T06:57:46.160Z,4.40
2019-02-25T07:00:54.132Z,5.00
2019-02-25T07:04:26.978Z,5.70
2019-02-25T07:07:52.242Z,6.20
2019-02-25T07:11:24.835Z,6.40
2019-02-25T07:14:47.512Z,6.90
2019-02-25T07:18:11.120Z,7.40
2019-02-25T07:21:40.821Z,8.00
2019-02-25T07:25:07.184Z,8.80
2019-02-25T07:28:32.623Z,9.00
2019-02-25T07:31:53.059Z,9.40
2019-02-25T07:35:08.392Z,9.70
2019-02-25T07:38:53.489Z,10.20
2019-02-25T07:42:18.931Z,10.70
2019-02-25T07:45:45.581Z,10.90
2019-02-25T07:49:03.710Z,11.00
2019-02-25T07:52:34.540Z,10.90
2019-02-25T07:56:10.034Z,10.70
2019-02-25T07:59:54.666Z,10.20
2019-02-25T08:03:15.749Z,10.00
2019-02-25T08:06:30.828Z,10.00
2019-02-25T08:09:46.375Z,9.80
2019-02-25T08:13:19.308Z,10.30
2019-02-25T08:16:44.791Z,10.60
2019-02-25T08:20:04.428Z,11.10
2019-02-25T08:23:30.874Z,11.20
2019-02-25T08:27:04.926Z,11.60
2019-02-25T08:30:24.250Z,11.50
2019-02-25T08:33:51.629Z,11.50
2019-02-25T08:38:04.531Z,11.40
2019-02-25T08:41:32.765Z,11.60
2019-02-25T08:44:55.176Z,11.60
2019-02-25T08:48:10.669Z,11.80
2019-02-25T08:51:18.324Z,12.00
2019-02-25T08:54:26.014Z,11.80
2019-02-25T08:57:33.652Z,11.80
2019-02-25T09:00:42.170Z,11.80
2019-02-25T09:03:49.914Z,11.90
2019-02-25T09:06:57.510Z,12.30
2019-02-25T09:10:06.120Z,12.20
2019-02-25T09:13:13.714Z,12.80
2019-02-25T09:16:21.292Z,12.60
2019-02-25T09:19:29.130Z,12.70
2019-02-25T09:22:36.729Z,12.50
2019-02-25T09:25:44.498Z,12.40
2019-02-25T09:28:52.690Z,12.00
2019-02-25T09:32:00.450Z,11.70
2019-02-25T09:35:08.708Z,11.30
2019-02-25T09:38:16.358Z,10.90
2019-02-25T09:41:30.029Z,10.90
2019-02-25T09:44:33.278Z,10.70
2019-02-25T09:47:40.916Z,10.10
2019-02-25T09:50:48.512Z,10.00
2019-02-25T09:53:56.139Z,9.90
2019-02-25T09:57:03.884Z,9.80
2019-02-25T10:00:14.822Z,9.80
2019-02-25T10:03:22.432Z,10.20
2019-02-25T10:06:30.044Z,10.20
2019-02-25T10:09:37.664Z,10.80
2019-02-25T10:12:45.354Z,11.40
2019-02-25T10:15:53.086Z,11.90
2019-02-25T10:19:00.639Z,11.90
2019-02-25T10:22:08.344Z,11.70
2019-02-25T10:25:15.947Z,11.20
2019-02-25T10:28:23.590Z,10.90
2019-02-25T10:31:31.290Z,10.80
2019-02-25T10:34:39.899Z,10.90
2019-02-25T10:37:48.219Z,10.40
2019-02-25T10:40:55.848Z,10.40
2019-02-25T10:44:04.822Z,10.50
2019-02-25T10:47:13.617Z,10.60
2019-02-25T10:50:22.362Z,10.60
2019-02-25T10:53:30.132Z,10.40
2019-02-25T10:56:59.908Z,10.50
2019-02-25T11:00:10.081Z,10.40
2019-02-25T11:03:20.027Z,10.40
2019-02-25T11:06:29.104Z,10.00
2019-02-25T11:09:48.340Z,9.90
2019-02-25T11:12:57.702Z,10.10
2019-02-25T11:16:06.015Z,10.20
2019-02-25T11:19:13.792Z,10.40
2019-02-25T11:22:21.533Z,10.40
2019-02-25T11:25:30.184Z,10.90
2019-02-25T11:28:39.171Z,11.20
2019-02-25T11:31:47.820Z,11.60
2019-02-25T11:34:56.428Z,12.20
2019-02-25T11:38:04.204Z,12.60
2019-02-25T11:41:11.852Z,13.30
2019-02-25T11:44:21.104Z,13.50
2019-02-25T11:47:28.669Z,13.80
2019-02-25T11:50:36.387Z,13.80
2019-02-25T11:53:44.018Z,13.70
2019-02-25T11:56:51.716Z,13.60
2019-02-25T11:59:59.812Z,13.40
2019-02-25T12:03:07.856Z,13.00
2019-02-25T12:06:15.430Z,12.80
2019-02-25T12:09:23.076Z,12.90
2019-02-25T12:12:30.631Z,13.00
2019-02-25T12:15:38.618Z,13.00
2019-02-25T12:18:46.223Z,13.30
2019-02-25T12:21:53.873Z,13.60
2019-02-25T12:25:01.436Z,13.90
2019-02-25T12:28:09.138Z,13.90
2019-02-25T12:31:18.439Z,13.50
2019-02-25T12:34:26.466Z,13.90
2019-02-25T12:37:34.622Z,14.00
2019-02-25T12:40:42.536Z,14.10
2019-02-25T12:43:50.151Z,14.10
2019-02-25T12:46:58.331Z,14.10
2019-02-25T12:50:07.441Z,14.20
2019-02-25T12:53:15.210Z,14.00
2019-02-25T12:56:23.723Z,13.80
2019-02-25T12:59:31.409Z,14.00
2019-02-25T13:02:39.404Z,13.70
2019-02-25T13:05:47.026Z,13.50
2019-02-25T13:08:55.188Z,13.50
2019-02-25T13:12:03.302Z,13.50
2019-02-25T13:15:13.891Z,13.50
2019-02-25T13:18:21.671Z,13.30
2019-02-25T13:21:29.459Z,13.30
2019-02-25T13:24:39.432Z,13.10
2019-02-25T13:27:47.199Z,13.10
2019-02-25T13:30:55.182Z,13.00
2019-02-25T13:34:03.090Z,12.50
2019-02-25T13:37:10.992Z,12.20
2019-02-25T13:40:20.025Z,11.90
2019-02-25T13:43:27.994Z,11.60
2019-02-25T13:46:35.677Z,11.40
2019-02-25T13:49:44.299Z,11.40
2019-02-25T13:52:52.570Z,11.20
2019-02-25T13:56:00.313Z,11.10
2019-02-25T13:59:08.865Z,11.00
2019-02-25T14:02:16.695Z,11.00
2019-02-25T14:05:24.737Z,10.90
2019-02-25T14:08:34.818Z,10.90
2019-02-25T14:11:42.279Z,10.80
2019-02-25T14:14:51.841Z,10.70
2019-02-25T14:17:59.854Z,10.70
2019-02-25T14:21:07.919Z,10.70
2019-02-25T14:24:16.129Z,10.70
2019-02-25T14:27:27.131Z,10.70
2019-02-25T14:30:35.223Z,10.70
2019-02-25T14:33:43.338Z,10.70
2019-02-25T14:36:52.463Z,10.60
2019-02-25T14:40:04.129Z,10.60
2019-02-25T14:43:14.828Z,10.40
2019-02-25T14:46:22.545Z,10.40
2019-02-25T14:49:32.456Z,10.30
2019-02-25T14:52:40.395Z,10.30
2019-02-25T14:55:50.337Z,10.10
2019-02-25T14:58:57.380Z,10.10
2019-02-25T15:02:06.302Z,10.00
2019-02-25T15:05:16.772Z,10.00
2019-02-25T15:08:25.790Z,9.90
2019-02-25T15:11:33.625Z,9.80
2019-02-25T15:14:42.295Z,9.60
2019-02-25T15:17:50.521Z,9.50
2019-02-25T15:21:00.649Z,9.50
2019-02-25T15:24:10.364Z,9.40
2019-02-25T15:27:20.099Z,9.30
2019-02-25T15:30:30.382Z,9.20
2019-02-25T15:33:37.984Z,9.10
2019-02-25T15:36:46.484Z,9.00
2019-02-25T15:39:55.915Z,9.00
2019-02-25T15:43:05.858Z,8.90
2019-02-25T15:46:16.642Z,8.80
2019-02-25T15:49:25.639Z,8.70
2019-02-25T15:52:39.843Z,8.70
2019-02-25T15:55:42.995Z,8.50
2019-02-25T15:58:52.300Z,8.40
2019-02-25T16:02:00.099Z,8.30
2019-02-25T16:05:09.940Z,8.10
2019-02-25T16:08:19.403Z,8.00
2019-02-25T16:11:27.354Z,7.80
2019-02-25T16:14:35.188Z,7.70
2019-02-25T16:17:44.584Z,7.70
2019-02-25T16:20:52.303Z,7.60
2019-02-25T16:24:02.049Z,7.50
2019-02-25T16:27:09.787Z,7.30
2019-02-25T16:30:19.088Z,7.20
2019-02-25T16:33:28.191Z,7.10
2019-02-25T16:36:36.405Z,7.00
2019-02-25T16:39:50.172Z,6.80
2019-02-25T16:42:59.745Z,6.80
2019-02-25T16:46:09.232Z,6.60
2019-02-25T16:49:16.894Z,6.60
2019-02-25T16:52:24.729Z,6.50
2019-02-25T16:55:32.721Z,6.40
2019-02-25T16:58:40.557Z,6.30
2019-02-25T17:01:48.231Z,6.20
2019-02-25T17:04:56.115Z,6.10
2019-02-25T17:08:05.572Z,6.10
2019-02-25T17:11:15.181Z,6.10
2019-02-25T17:14:23.980Z,6.00
2019-02-25T17:17:32.478Z,6.00
2019-02-25T17:20:40.922Z,6.00
2019-02-25T17:23:48.582Z,6.00
2019-02-25T17:26:56.147Z,6.00
2019-02-25T17:30:03.850Z,6.00
2019-02-25T17:33:14.830Z,6.10
2019-02-25T17:36:22.767Z,6.20
2019-02-25T17:39:32.891Z,6.20
2019-02-25T17:42:40.174Z,6.30
2019-02-25T17:45:47.923Z,6.40
2019-02-25T17:48:55.538Z,6.40
2019-02-25T17:52:03.217Z,6.50
2019-02-25T17:55:13.607Z,6.50
2019-02-25T17:58:21.951Z,6.60
2019-02-25T18:01:31.134Z,6.60
2019-02-25T18:04:39.967Z,6.60
2019-02-25T18:07:48.654Z,6.60
2019-02-25T18:10:59.255Z,6.50
2019-02-25T18:14:09.128Z,6.50
2019-02-25T18:17:19.197Z,6.40
2019-02-25T18:20:27.330Z,6.40
2019-02-25T18:23:36.327Z,6.30
2019-02-25T18:26:46.936Z,6.30
2019-02-25T18:29:59.587Z,6.30
2019-02-25T18:33:07.567Z,6.30
2019-02-25T18:36:16.462Z,6.40
2019-02-25T18:39:25.775Z,6.40
2019-02-25T18:42:36.478Z,6.40
2019-02-25T18:45:44.779Z,6.40
2019-02-25T18:48:52.548Z,6.40
2019-02-25T18:52:00.293Z,6.30
2019-02-25T18:55:09.520Z,6.30
2019-02-25T18:58:18.330Z,6.30
2019-02-25T19:01:26.726Z,6.30
2019-02-25T19:04:34.984Z,6.20
2019-02-25T19:07:43.707Z,6.30
2019-02-25T19:10:53.182Z,6.30
2019-02-25T19:14:03.145Z,6.30
2019-02-25T19:17:10.131Z,6.30
2019-02-25T19:20:17.967Z,6.30
2019-02-25T19:23:25.785Z,6.30
2019-02-25T19:26:33.532Z,6.30
2019-02-25T19:29:41.176Z,6.30
2019-02-25T19:32:49.297Z,6.30
2019-02-25T19:35:58.817Z,6.30
2019-02-25T19:39:11.941Z,6.40
2019-02-25T19:42:22.448Z,6.40
2019-02-25T19:45:29.742Z,6.40
2019-02-25T19:48:38.911Z,6.40
2019-02-25T19:51:48.403Z,6.40
2019-02-25T19:54:57.875Z,6.50
2019-02-25T19:58:05.722Z,6.50
2019-02-25T20:01:13.446Z,6.50
2019-02-25T20:04:21.502Z,6.50
2019-02-25T20:07:30.913Z,6.50
2019-02-25T20:10:38.674Z,6.50
2019-02-25T20:13:46.717Z,6.40
2019-02-25T20:16:54.778Z,6.40
2019-02-25T20:20:04.392Z,6.40
2019-02-25T20:23:11.891Z,6.40
2019-02-25T20:26:20.123Z,6.40
2019-02-25T20:29:29.273Z,6.40
2019-02-25T20:32:38.492Z,6.40
2019-02-25T20:35:51.051Z,6.50
2019-02-25T20:38:55.486Z,6.40
2019-02-25T20:42:04.091Z,6.40
2019-02-25T20:45:14.776Z,6.40
2019-02-25T20:48:22.529Z,6.50
2019-02-25T20:51:31.605Z,6.50
2019-02-25T20:54:41.619Z,6.40
2019-02-25T20:57:48.952Z,6.40
2019-02-25T21:00:56.625Z,6.40
2019-02-25T21:04:05.449Z,6.40
2019-02-25T21:07:13.313Z,6.40
2019-02-25T21:10:22.748Z,6.40
2019-02-25T21:13:33.415Z,6.40
2019-02-25T21:16:40.917Z,6.40
2019-02-25T21:19:48.586Z,6.40
2019-02-25T21:22:57.744Z,6.40
2019-02-25T21:26:07.448Z,6.40
2019-02-25T21:29:14.958Z,6.40
2019-02-25T21:32:24.105Z,6.40
2019-02-25T21:35:36.647Z,6.40
2019-02-25T21:38:40.947Z,6.40
2019-02-25T21:41:48.475Z,6.40
2019-02-25T21:44:57.024Z,6.40
2019-02-25T21:48:07.443Z,6.40
2019-02-25T21:51:14.791Z,6.40
2019-02-25T21:54:22.870Z,6.40
2019-02-25T21:57:31.400Z,6.40
2019-02-25T22:00:40.880Z,6.40
2019-02-25T22:03:50.477Z,6.40
2019-02-25T22:07:00.172Z,6.30
2019-02-25T22:10:09.206Z,6.30
2019-02-25T22:13:18.363Z,6.30
2019-02-25T22:16:27.861Z,6.30
2019-02-25T22:19:37.441Z,6.30
2019-02-25T22:22:45.251Z,6.30
2019-02-25T22:25:52.989Z,6.30
2019-02-25T22:29:01.828Z,6.30
2019-02-25T22:32:11.251Z,6.30
2019-02-25T22:35:19.064Z,6.30
2019-02-25T22:38:26.709Z,6.30
2019-02-25T22:41:34.467Z,6.30
2019-02-25T22:44:45.160Z,6.30
2019-02-25T22:47:53.301Z,6.20
2019-02-25T22:51:02.524Z,6.20
2019-02-25T22:54:12.148Z,6.20
2019-02-25T22:57:20.871Z,6.20
2019-02-25T23:00:58.196Z,6.20
2019-02-25T23:04:15.551Z,6.20
2019-02-25T23:07:24.618Z,6.20
2019-02-25T23:10:32.520Z,6.20
2019-02-25T23:13:40.583Z,6.20
2019-02-25T23:16:48.356Z,6.20
2019-02-25T23:19:57.798Z,6.20
2019-02-25T23:23:06.694Z,6.20
2019-02-25T23:26:17.070Z,6.20
2019-02-25T23:29:27.953Z,6.20
2019-02-25T23:32:34.007Z,6.20
2019-02-25T23:35:44.685Z,6.10
2019-02-25T23:38:52.565Z,6.10
2019-02-25T23:42:00.645Z,6.10
2019-02-25T23:45:10.753Z,6.00
2019-02-25T23:48:18.529Z,5.90
2019-02-25T23:51:27.109Z,5.80
2019-02-25T23:54:34.682Z,5.70
2019-02-25T23:57:42.483Z,5.60
